createdAt,value
2019-05-20T00:00:55.140Z,16.68
2019-05-20T00:01:55.140Z,16.72
2019-05-20T00:02:55.137Z,16.81
2019-05-20T00:03:55.141Z,16.76
2019-05-20T00:04:55.134Z,16.79
2019-05-20T00:05:55.141Z,16.78
2019-05-20T00:06:55.131Z,16.74
2019-05-20T00:07:55.134Z,16.83
2019-05-20T00:08:55.129Z,16.81
2019-05-20T00:09:55.126Z,16.86
2019-05-20T00:10:55.127Z,16.79
2019-05-20T00:11:55.123Z,16.83
2019-05-20T00:12:55.123Z,16.83
2019-05-20T00:13:55.124Z,16.79
2019-05-20T00:14:55.120Z,16.71
2019-05-20T00:15:55.117Z,16.74
2019-05-20T00:16:55.116Z,16.69
2019-05-20T00:17:55.121Z,16.65
2019-05-20T00:18:55.118Z,16.64
2019-05-20T00:19:55.110Z,16.69
2019-05-20T00:20:55.108Z,16.58
2019-05-20T00:21:55.108Z,16.64
2019-05-20T00:22:55.106Z,16.74
2019-05-20T00:23:55.107Z,16.65
2019-05-20T00:24:55.106Z,16.68
2019-05-20T00:25:55.100Z,16.76
2019-05-20T00:26:55.100Z,16.65
2019-05-20T00:27:55.096Z,16.69
2019-05-20T00:28:55.098Z,16.61
2019-05-20T00:29:55.092Z,16.72
2019-05-20T00:30:55.096Z,16.69
2019-05-20T00:31:55.097Z,16.60
2019-05-20T00:32:55.087Z,16.65
2019-05-20T00:33:55.087Z,16.61
2019-05-20T00:34:55.089Z,16.72
2019-05-20T00:35:55.082Z,16.58
2019-05-20T00:36:55.084Z,16.51
2019-05-20T00:37:55.079Z,16.56
2019-05-20T00:38:55.076Z,16.60
2019-05-20T00:39:55.077Z,16.57
2019-05-20T00:40:55.073Z,16.58
2019-05-20T00:41:55.072Z,16.54
2019-05-20T00:42:55.073Z,16.58
2019-05-20T00:43:55.068Z,16.54
2019-05-20T00:44:55.070Z,16.53
2019-05-20T00:45:55.113Z,16.43
2019-05-20T00:46:55.063Z,16.46
2019-05-20T00:47:55.057Z,16.53
2019-05-20T00:48:55.058Z,16.47
2019-05-20T00:49:55.054Z,16.46
2019-05-20T00:50:55.052Z,16.35
2019-05-20T00:51:55.050Z,16.36
2019-05-20T00:52:55.051Z,16.47
2019-05-20T00:53:55.046Z,16.33
2019-05-20T00:54:55.045Z,16.39
2019-05-20T00:55:55.044Z,16.35
2019-05-20T00:56:55.047Z,16.36
2019-05-20T00:57:55.045Z,16.24
2019-05-20T00:58:55.036Z,16.16
2019-05-20T00:59:55.036Z,16.17
2019-05-20T01:00:55.034Z,16.13
2019-05-20T01:01:55.057Z,16.21
2019-05-20T01:02:57.190Z,16.20
2019-05-20T01:03:55.026Z,16.24
2019-05-20T01:04:55.026Z,16.24
2019-05-20T01:05:55.024Z,16.28
2019-05-20T01:06:55.020Z,16.23
2019-05-20T01:07:55.021Z,16.29
2019-05-20T01:08:55.018Z,16.23
2019-05-20T01:09:55.016Z,16.32
2019-05-20T01:10:55.013Z,16.33
2019-05-20T01:11:55.015Z,16.28
2019-05-20T01:12:55.009Z,16.32
2019-05-20T01:13:55.008Z,16.16
2019-05-20T01:14:55.006Z,16.13
2019-05-20T01:15:55.005Z,16.16
2019-05-20T01:16:55.003Z,16.08
2019-05-20T01:17:55.041Z,16.20
2019-05-20T01:18:54.997Z,16.20
2019-05-20T01:19:54.996Z,16.12
2019-05-20T01:20:55.014Z,16.05
2019-05-20T01:21:54.991Z,16.05
2019-05-20T01:22:54.987Z,16.04
2019-05-20T01:23:54.986Z,16.04
2019-05-20T01:24:54.984Z,16.05
2019-05-20T01:25:54.980Z,16.17
2019-05-20T01:26:54.983Z,16.05
2019-05-20T01:27:54.978Z,16.10
2019-05-20T01:28:54.982Z,16.02
2019-05-20T01:29:54.973Z,16.02
2019-05-20T01:30:54.970Z,16.05
2019-05-20T01:31:54.970Z,15.98
2019-05-20T01:32:54.967Z,15.95
2019-05-20T01:33:54.963Z,15.95
2019-05-20T01:34:54.965Z,16.00
2019-05-20T01:35:54.960Z,15.94
2019-05-20T01:36:54.958Z,15.94
2019-05-20T01:37:54.951Z,15.86
2019-05-20T01:38:54.952Z,15.95
2019-05-20T01:39:54.951Z,15.86
2019-05-20T01:40:54.950Z,15.86
2019-05-20T01:41:54.946Z,15.88
2019-05-20T01:42:54.945Z,15.82
2019-05-20T01:43:54.942Z,15.84
2019-05-20T01:44:54.940Z,15.76
2019-05-20T01:45:54.937Z,15.82
2019-05-20T01:46:54.936Z,15.72
2019-05-20T01:47:54.932Z,15.84
2019-05-20T01:48:54.930Z,15.79
2019-05-20T01:49:54.929Z,15.84
2019-05-20T01:50:54.932Z,15.79
2019-05-20T01:51:54.924Z,15.83
2019-05-20T01:52:54.921Z,15.90
2019-05-20T01:53:54.919Z,15.84
2019-05-20T01:54:54.916Z,15.82
2019-05-20T01:55:54.916Z,15.84
2019-05-20T01:56:54.917Z,15.88
2019-05-20T01:57:54.908Z,15.82
2019-05-20T01:58:54.906Z,15.90
2019-05-20T01:59:54.907Z,15.83
2019-05-20T02:00:54.902Z,15.70
2019-05-20T02:01:54.907Z,15.67
2019-05-20T02:02:54.899Z,15.64
2019-05-20T02:03:54.897Z,15.70
2019-05-20T02:04:54.894Z,15.67
2019-05-20T02:05:54.894Z,15.64
2019-05-20T02:06:54.890Z,15.68
2019-05-20T02:07:54.886Z,15.67
2019-05-20T02:08:54.888Z,15.58
2019-05-20T02:09:54.884Z,15.51
2019-05-20T02:10:56.674Z,15.49
2019-05-20T02:11:54.879Z,15.62
2019-05-20T02:12:54.876Z,15.61
2019-05-20T02:13:54.873Z,15.57
2019-05-20T02:14:54.871Z,15.49
2019-05-20T02:15:54.875Z,15.58
2019-05-20T02:16:54.867Z,15.62
2019-05-20T02:17:54.863Z,15.46
2019-05-20T02:18:54.865Z,15.55
2019-05-20T02:19:54.859Z,15.57
2019-05-20T02:20:54.859Z,15.51
2019-05-20T02:21:54.855Z,15.51
2019-05-20T02:22:54.857Z,15.47
2019-05-20T02:23:54.849Z,15.44
2019-05-20T02:24:54.854Z,15.51
2019-05-20T02:25:54.847Z,15.54
2019-05-20T02:26:54.850Z,15.46
2019-05-20T02:27:54.845Z,15.40
2019-05-20T02:28:54.839Z,15.40
2019-05-20T02:29:54.836Z,15.39
2019-05-20T02:30:56.991Z,15.42
2019-05-20T02:31:54.833Z,15.39
2019-05-20T02:32:54.832Z,15.39
2019-05-20T02:33:54.830Z,15.33
2019-05-20T02:34:54.834Z,15.42
2019-05-20T02:35:54.824Z,15.37
2019-05-20T02:36:54.823Z,15.40
2019-05-20T02:37:54.823Z,15.36
2019-05-20T02:38:54.822Z,15.40
2019-05-20T02:39:54.817Z,15.39
2019-05-20T02:40:54.815Z,15.33
2019-05-20T02:41:54.810Z,15.33
2019-05-20T02:42:54.806Z,15.40
2019-05-20T02:43:54.809Z,15.36
2019-05-20T02:44:54.807Z,15.21
2019-05-20T02:45:54.800Z,15.33
2019-05-20T02:46:54.803Z,15.27
2019-05-20T02:47:54.798Z,15.22
2019-05-20T02:48:54.796Z,15.25
2019-05-20T02:49:54.789Z,15.25
2019-05-20T02:50:54.788Z,15.22
2019-05-20T02:51:54.785Z,15.24
2019-05-20T02:52:54.783Z,15.27
2019-05-20T02:53:54.785Z,15.28
2019-05-20T02:54:54.776Z,15.22
2019-05-20T02:55:54.774Z,15.25
2019-05-20T02:56:54.775Z,15.22
2019-05-20T02:57:54.769Z,15.21
2019-05-20T02:58:54.768Z,15.14
2019-05-20T02:59:54.768Z,15.17
2019-05-20T03:00:54.762Z,15.14
2019-05-20T03:01:54.757Z,15.18
2019-05-20T03:02:54.760Z,15.11
2019-05-20T03:04:10.649Z,15.11
2019-05-20T03:04:54.753Z,15.10
2019-05-20T03:05:54.749Z,15.15
2019-05-20T03:06:54.745Z,15.09
2019-05-20T03:07:54.742Z,15.11
2019-05-20T03:08:54.742Z,15.03
2019-05-20T03:09:54.740Z,15.06
2019-05-20T03:10:54.739Z,15.06
2019-05-20T03:11:54.739Z,15.07
2019-05-20T03:12:54.733Z,15.06
2019-05-20T03:13:54.730Z,15.09
2019-05-20T03:14:54.726Z,15.03
2019-05-20T03:15:54.723Z,15.09
2019-05-20T03:16:54.720Z,15.03
2019-05-20T03:17:54.738Z,15.06
2019-05-20T03:18:54.713Z,15.02
2019-05-20T03:19:54.719Z,15.04
2019-05-20T03:20:54.712Z,15.02
2019-05-20T03:21:54.726Z,15.00
2019-05-20T03:22:54.706Z,15.07
2019-05-20T03:23:54.703Z,15.00
2019-05-20T03:24:54.700Z,15.03
2019-05-20T03:25:54.705Z,15.11
2019-05-20T03:26:54.693Z,15.06
2019-05-20T03:27:54.699Z,15.06
2019-05-20T03:28:54.693Z,15.07
2019-05-20T03:29:54.682Z,15.04
2019-05-20T03:30:54.711Z,15.00
2019-05-20T03:31:54.679Z,15.10
2019-05-20T03:32:54.678Z,15.07
2019-05-20T03:33:54.672Z,15.14
2019-05-20T03:35:00.123Z,15.03
2019-05-20T03:35:54.671Z,15.10
2019-05-20T03:36:54.665Z,15.10
2019-05-20T03:37:54.660Z,15.19
2019-05-20T03:38:54.658Z,15.22
2019-05-20T03:39:54.655Z,15.22
2019-05-20T03:40:54.651Z,15.22
2019-05-20T03:41:54.651Z,15.28
2019-05-20T03:42:54.648Z,15.29
2019-05-20T03:43:54.648Z,15.27
2019-05-20T03:44:54.643Z,15.21
2019-05-20T03:45:54.638Z,15.25
2019-05-20T03:46:54.638Z,15.24
2019-05-20T03:47:54.636Z,15.25
2019-05-20T03:48:54.628Z,15.39
2019-05-20T03:49:54.626Z,15.46
2019-05-20T03:50:54.623Z,15.59
2019-05-20T03:51:54.633Z,15.64
2019-05-20T03:52:54.623Z,15.86
2019-05-20T03:53:54.616Z,15.92
2019-05-20T03:54:54.615Z,16.05
2019-05-20T03:55:54.612Z,16.23
2019-05-20T03:56:54.610Z,16.29
2019-05-20T03:57:54.604Z,16.33
2019-05-20T03:58:54.603Z,16.46
2019-05-20T03:59:54.636Z,16.39
2019-05-20T04:00:54.609Z,16.42
2019-05-20T04:01:54.595Z,16.69
2019-05-20T04:02:54.595Z,16.76
2019-05-20T04:03:54.590Z,16.61
2019-05-20T04:05:02.038Z,16.53
2019-05-20T04:05:54.586Z,16.39
2019-05-20T04:06:54.589Z,16.51
2019-05-20T04:07:54.635Z,16.54
2019-05-20T04:08:54.577Z,16.83
2019-05-20T04:09:54.574Z,16.99
2019-05-20T04:10:54.573Z,17.14
2019-05-20T04:11:54.578Z,16.83
2019-05-20T04:12:54.571Z,16.79
2019-05-20T04:13:54.566Z,16.74
2019-05-20T04:14:54.566Z,16.69
2019-05-20T04:15:54.563Z,16.99
2019-05-20T04:16:54.574Z,17.39
2019-05-20T04:17:54.561Z,17.24
2019-05-20T04:18:54.595Z,17.36
2019-05-20T04:19:54.573Z,17.51
2019-05-20T04:20:54.552Z,17.56
2019-05-20T04:21:54.550Z,17.57
2019-05-20T04:22:54.551Z,17.46
2019-05-20T04:23:54.553Z,17.41
2019-05-20T04:24:54.546Z,17.45
2019-05-20T04:25:54.549Z,17.57
2019-05-20T04:26:54.543Z,17.80
2019-05-20T04:27:54.543Z,17.92
2019-05-20T04:28:54.535Z,18.08
2019-05-20T04:29:54.539Z,18.07
2019-05-20T04:30:54.539Z,18.18
2019-05-20T04:31:54.537Z,18.10
2019-05-20T04:32:54.531Z,18.03
2019-05-20T04:33:54.528Z,18.47
2019-05-20T04:34:54.532Z,18.74
2019-05-20T04:35:54.530Z,18.98
2019-05-20T04:36:54.524Z,18.56
2019-05-20T04:37:54.525Z,18.31
2019-05-20T04:38:54.524Z,18.92
2019-05-20T04:39:54.518Z,19.29
2019-05-20T04:40:54.519Z,19.51
2019-05-20T04:41:54.537Z,19.67
2019-05-20T04:42:54.516Z,19.47
2019-05-20T04:43:54.518Z,19.15
2019-05-20T04:44:54.518Z,18.89
2019-05-20T04:45:54.512Z,19.14
2019-05-20T04:46:57.722Z,19.56
2019-05-20T04:47:54.511Z,19.64
2019-05-20T04:48:54.510Z,19.94
2019-05-20T04:49:54.508Z,19.45
2019-05-20T04:50:54.510Z,19.54
2019-05-20T04:51:54.507Z,19.47
2019-05-20T04:52:54.520Z,19.36
2019-05-20T04:53:54.505Z,19.08
2019-05-20T04:54:54.503Z,18.96
2019-05-20T04:55:54.503Z,18.80
2019-05-20T04:56:54.499Z,19.02
2019-05-20T04:57:54.505Z,18.83
2019-05-20T04:58:54.503Z,18.65
2019-05-20T04:59:54.511Z,18.77
2019-05-20T05:00:54.513Z,18.84
2019-05-20T05:01:54.501Z,19.14
2019-05-20T05:02:54.513Z,18.88
2019-05-20T05:03:54.503Z,18.56
2019-05-20T05:04:54.524Z,18.71
2019-05-20T05:05:54.514Z,18.58
2019-05-20T05:06:54.502Z,18.73
2019-05-20T05:07:54.498Z,18.38
2019-05-20T05:08:54.501Z,18.23
2019-05-20T05:09:54.495Z,18.03
2019-05-20T05:10:54.502Z,18.15
2019-05-20T05:11:54.496Z,17.89
2019-05-20T05:12:54.502Z,17.76
2019-05-20T05:13:54.494Z,17.78
2019-05-20T05:14:54.492Z,18.23
2019-05-20T05:15:54.493Z,18.53
2019-05-20T05:16:54.498Z,18.77
2019-05-20T05:17:54.490Z,18.74
2019-05-20T05:18:54.489Z,18.75
2019-05-20T05:19:54.485Z,18.43
2019-05-20T05:20:54.490Z,18.49
2019-05-20T05:21:54.490Z,18.52
2019-05-20T05:22:54.488Z,18.73
2019-05-20T05:23:59.089Z,18.29
2019-05-20T05:24:54.488Z,18.40
2019-05-20T05:25:54.493Z,18.26
2019-05-20T05:26:54.488Z,18.11
2019-05-20T05:27:54.484Z,18.22
2019-05-20T05:28:54.491Z,18.65
2019-05-20T05:29:54.483Z,19.08
2019-05-20T05:30:54.483Z,19.67
2019-05-20T05:31:54.481Z,20.32
2019-05-20T05:32:54.489Z,20.37
2019-05-20T05:33:54.573Z,20.02
2019-05-20T05:34:54.474Z,19.95
2019-05-20T05:35:54.480Z,20.00
2019-05-20T05:36:54.489Z,20.39
2019-05-20T05:37:54.537Z,20.37
2019-05-20T05:38:54.479Z,20.40
2019-05-20T05:39:54.478Z,20.72
2019-05-20T05:40:54.479Z,21.20
2019-05-20T05:41:54.481Z,20.90
2019-05-20T05:42:54.478Z,21.54
2019-05-20T05:43:54.481Z,22.08
2019-05-20T05:44:54.488Z,21.77
2019-05-20T05:45:54.474Z,21.06
2019-05-20T05:46:54.479Z,20.69
2019-05-20T05:47:54.482Z,20.28
2019-05-20T05:48:54.485Z,20.14
2019-05-20T05:49:54.478Z,20.44
2019-05-20T05:50:54.480Z,20.59
2019-05-20T05:51:54.483Z,20.96
2019-05-20T05:52:54.485Z,20.62
2019-05-20T05:53:54.487Z,20.34
2019-05-20T05:54:54.483Z,19.52
2019-05-20T05:55:54.485Z,19.24
2019-05-20T05:56:54.481Z,19.11
2019-05-20T05:57:54.489Z,18.77
2019-05-20T05:58:54.487Z,18.50
2019-05-20T05:59:54.483Z,18.75
2019-05-20T06:00:54.490Z,19.04
2019-05-20T06:01:54.489Z,19.34
2019-05-20T06:02:54.491Z,19.71
2019-05-20T06:03:54.488Z,20.00
2019-05-20T06:04:54.487Z,20.51
2019-05-20T06:06:10.737Z,20.60
2019-05-20T06:06:54.496Z,21.18
2019-05-20T06:07:54.484Z,22.20
2019-05-20T06:08:54.493Z,22.35
2019-05-20T06:09:54.491Z,22.06
2019-05-20T06:10:54.490Z,22.66
2019-05-20T06:11:54.490Z,21.83
2019-05-20T06:12:54.493Z,21.17
2019-05-20T06:13:54.500Z,21.64
2019-05-20T06:14:54.504Z,22.26
2019-05-20T06:15:54.794Z,22.44
2019-05-20T06:16:54.505Z,22.96
2019-05-20T06:17:54.496Z,23.25
2019-05-20T06:18:54.506Z,22.44
2019-05-20T06:19:54.499Z,21.93
2019-05-20T06:20:54.503Z,21.35
2019-05-20T06:21:54.503Z,21.60
2019-05-20T06:22:54.509Z,22.11
2019-05-20T06:23:54.511Z,22.36
2019-05-20T06:24:54.509Z,22.36
2019-05-20T06:25:54.512Z,22.59
2019-05-20T06:26:54.521Z,22.87
2019-05-20T06:27:54.521Z,22.93
2019-05-20T06:28:54.510Z,21.83
2019-05-20T06:29:54.515Z,21.12
2019-05-20T06:30:54.554Z,21.85
2019-05-20T06:31:54.524Z,22.14
2019-05-20T06:32:54.522Z,22.50
2019-05-20T06:33:54.522Z,22.28
2019-05-20T06:34:54.526Z,22.50
2019-05-20T06:35:54.534Z,22.13
2019-05-20T06:36:54.529Z,21.99
2019-05-20T06:37:54.534Z,22.33
2019-05-20T06:38:54.539Z,23.02
2019-05-20T06:39:54.550Z,24.08
2019-05-20T06:40:54.541Z,23.62
2019-05-20T06:41:54.537Z,24.01
2019-05-20T06:42:54.546Z,24.35
2019-05-20T06:43:54.549Z,24.53
2019-05-20T06:44:57.286Z,25.01
2019-05-20T06:45:54.552Z,25.22
2019-05-20T06:46:54.556Z,24.13
2019-05-20T06:47:54.558Z,23.12
2019-05-20T06:48:54.577Z,23.17
2019-05-20T06:49:54.565Z,23.48
2019-05-20T06:50:54.568Z,23.02
2019-05-20T06:51:54.574Z,23.84
2019-05-20T06:52:54.575Z,24.80
2019-05-20T06:53:54.581Z,25.01
2019-05-20T06:54:54.581Z,24.21
2019-05-20T06:55:54.588Z,23.99
2019-05-20T06:56:54.606Z,24.68
2019-05-20T06:57:54.597Z,24.95
2019-05-20T06:58:54.599Z,25.26
2019-05-20T06:59:54.600Z,25.63
2019-05-20T07:00:54.602Z,25.62
2019-05-20T07:01:54.606Z,25.53
2019-05-20T07:02:54.614Z,25.84
2019-05-20T07:03:54.617Z,25.54
2019-05-20T07:04:54.624Z,25.29
2019-05-20T07:05:54.624Z,25.26
2019-05-20T07:06:54.629Z,25.81
2019-05-20T07:07:54.631Z,26.56
2019-05-20T07:08:54.644Z,27.25
2019-05-20T07:09:54.682Z,27.35
2019-05-20T07:10:54.644Z,27.59
2019-05-20T07:11:54.650Z,27.44
2019-05-20T07:12:54.660Z,26.16
2019-05-20T07:13:54.661Z,26.78
2019-05-20T07:14:54.685Z,27.07
2019-05-20T07:15:54.680Z,26.36
2019-05-20T07:16:54.680Z,27.08
2019-05-20T07:17:54.681Z,26.15
2019-05-20T07:18:54.685Z,26.18
2019-05-20T07:19:54.688Z,26.26
2019-05-20T07:20:54.694Z,26.00
2019-05-20T07:21:54.697Z,25.65
2019-05-20T07:22:56.455Z,24.70
2019-05-20T07:23:54.709Z,24.68
2019-05-20T07:24:54.742Z,24.39
2019-05-20T07:25:54.733Z,24.39
2019-05-20T07:26:54.724Z,25.07
2019-05-20T07:27:54.727Z,25.59
2019-05-20T07:28:54.740Z,26.66
2019-05-20T07:29:54.737Z,27.26
2019-05-20T07:30:54.742Z,27.96
2019-05-20T07:31:54.754Z,28.78
2019-05-20T07:32:54.762Z,28.52
2019-05-20T07:33:54.759Z,28.78
2019-05-20T07:34:54.770Z,29.26
2019-05-20T07:35:54.775Z,29.65
2019-05-20T07:37:03.129Z,27.64
2019-05-20T07:37:54.792Z,27.39
2019-05-20T07:38:54.795Z,27.70
2019-05-20T07:39:54.814Z,27.73
2019-05-20T07:40:54.807Z,28.49
2019-05-20T07:41:54.823Z,29.13
2019-05-20T07:42:54.810Z,28.82
2019-05-20T07:43:54.817Z,29.34
2019-05-20T07:44:54.825Z,28.70
2019-05-20T07:45:54.830Z,28.32
2019-05-20T07:46:54.839Z,27.87
2019-05-20T07:47:54.842Z,25.23
2019-05-20T07:48:54.960Z,24.96
2019-05-20T07:49:54.855Z,25.59
2019-05-20T07:50:54.869Z,26.09
2019-05-20T07:51:54.871Z,26.65
2019-05-20T07:52:54.875Z,26.10
2019-05-20T07:53:54.884Z,25.93
2019-05-20T07:54:54.886Z,26.10
2019-05-20T07:55:54.893Z,26.36
2019-05-20T07:56:54.899Z,26.45
2019-05-20T07:57:54.904Z,27.33
2019-05-20T07:58:54.915Z,26.45
2019-05-20T07:59:54.913Z,25.48
2019-05-20T08:00:54.926Z,25.59
2019-05-20T08:01:54.933Z,25.60
2019-05-20T08:02:54.941Z,25.83
2019-05-20T08:03:54.946Z,26.44
2019-05-20T08:04:54.960Z,27.30
2019-05-20T08:05:54.958Z,26.25
2019-05-20T08:06:54.979Z,27.17
2019-05-20T08:07:54.974Z,27.67
2019-05-20T08:08:54.971Z,28.01
2019-05-20T08:09:54.984Z,28.93
2019-05-20T08:10:54.991Z,28.32
2019-05-20T08:11:54.999Z,27.71
2019-05-20T08:12:55.008Z,26.18
2019-05-20T08:13:55.015Z,25.58
2019-05-20T08:14:55.025Z,25.58
2019-05-20T08:15:55.026Z,25.53
2019-05-20T08:16:55.039Z,25.72
2019-05-20T08:17:55.048Z,26.59
2019-05-20T08:18:55.056Z,26.77
2019-05-20T08:19:55.061Z,27.77
2019-05-20T08:20:55.063Z,27.12
2019-05-20T08:21:55.079Z,26.44
2019-05-20T08:22:55.079Z,26.33
2019-05-20T08:23:55.093Z,26.92
2019-05-20T08:24:55.089Z,26.15
2019-05-20T08:25:55.099Z,26.09
2019-05-20T08:26:55.103Z,26.26
2019-05-20T08:27:55.112Z,27.20
2019-05-20T08:28:55.198Z,26.97
2019-05-20T08:29:55.123Z,27.36
2019-05-20T08:30:55.195Z,28.20
2019-05-20T08:31:55.140Z,28.05
2019-05-20T08:32:55.147Z,26.36
2019-05-20T08:33:55.205Z,26.81
2019-05-20T08:34:55.161Z,26.63
2019-05-20T08:35:55.170Z,26.70
2019-05-20T08:36:55.180Z,27.30
2019-05-20T08:37:55.183Z,27.29
2019-05-20T08:38:55.211Z,27.70
2019-05-20T08:39:55.250Z,28.33
2019-05-20T08:40:55.216Z,28.74
2019-05-20T08:41:55.215Z,28.56
2019-05-20T08:42:55.231Z,29.22
2019-05-20T08:43:55.231Z,28.85
2019-05-20T08:44:55.239Z,27.73
2019-05-20T08:45:55.252Z,26.89
2019-05-20T08:46:55.269Z,27.21
2019-05-20T08:47:55.269Z,27.45
2019-05-20T08:48:55.273Z,28.22
2019-05-20T08:49:55.398Z,28.49
2019-05-20T08:50:55.289Z,27.71
2019-05-20T08:51:55.291Z,27.86
2019-05-20T08:52:55.302Z,27.65
2019-05-20T08:53:55.316Z,28.14
2019-05-20T08:54:55.314Z,28.76
2019-05-20T08:55:55.336Z,28.44
2019-05-20T08:56:55.333Z,28.49
2019-05-20T08:57:55.337Z,28.98
2019-05-20T08:58:55.343Z,28.38
2019-05-20T08:59:55.351Z,28.49
2019-05-20T09:00:55.395Z,27.95
2019-05-20T09:01:55.369Z,27.68
2019-05-20T09:02:55.373Z,27.35
2019-05-20T09:03:55.381Z,26.95
2019-05-20T09:04:55.445Z,26.63
2019-05-20T09:05:55.390Z,25.80
2019-05-20T09:06:55.397Z,25.65
2019-05-20T09:08:03.129Z,25.70
2019-05-20T09:08:55.409Z,25.44
2019-05-20T09:09:55.410Z,25.10
2019-05-20T09:10:55.415Z,24.73
2019-05-20T09:11:55.425Z,24.96
2019-05-20T09:12:55.425Z,25.22
2019-05-20T09:13:55.441Z,25.01
2019-05-20T09:14:55.437Z,24.99
2019-05-20T09:15:55.445Z,24.89
2019-05-20T09:16:55.444Z,24.74
2019-05-20T09:17:55.451Z,25.01
2019-05-20T09:18:55.458Z,25.26
2019-05-20T09:19:55.459Z,25.28
2019-05-20T09:20:55.463Z,25.28
2019-05-20T09:21:55.471Z,25.03
2019-05-20T09:22:55.495Z,24.96
2019-05-20T09:23:55.519Z,25.16
2019-05-20T09:24:55.578Z,25.13
2019-05-20T09:25:55.489Z,24.86
2019-05-20T09:26:55.487Z,25.23
2019-05-20T09:27:55.489Z,25.35
2019-05-20T09:28:55.528Z,25.43
2019-05-20T09:29:55.497Z,25.35
2019-05-20T09:30:55.503Z,25.43
2019-05-20T09:31:55.506Z,25.36
2019-05-20T09:32:55.516Z,25.35
2019-05-20T09:33:55.534Z,24.96
2019-05-20T09:34:55.521Z,25.22
2019-05-20T09:35:55.522Z,25.17
2019-05-20T09:36:55.537Z,25.28
2019-05-20T09:37:55.527Z,25.58
2019-05-20T09:38:55.561Z,24.99
2019-05-20T09:39:55.537Z,24.66
2019-05-20T09:40:55.545Z,24.88
2019-05-20T09:41:55.544Z,24.95
2019-05-20T09:42:55.553Z,24.99
2019-05-20T09:43:55.604Z,25.16
2019-05-20T09:44:55.558Z,25.40
2019-05-20T09:46:06.246Z,25.55
2019-05-20T09:46:55.568Z,25.68
2019-05-20T09:47:55.624Z,25.51
2019-05-20T09:48:55.598Z,25.47
2019-05-20T09:49:55.576Z,25.58
2019-05-20T09:50:55.573Z,25.68
2019-05-20T09:51:55.584Z,25.66
2019-05-20T09:52:55.582Z,25.66
2019-05-20T09:53:55.631Z,25.54
2019-05-20T09:54:55.593Z,25.38
2019-05-20T09:55:55.616Z,25.55
2019-05-20T09:56:55.597Z,25.38
2019-05-20T09:57:55.654Z,25.47
2019-05-20T09:58:55.622Z,25.59
2019-05-20T09:59:55.604Z,25.66
2019-05-20T10:00:55.617Z,25.68
2019-05-20T10:01:55.613Z,25.70
2019-05-20T10:02:55.615Z,25.84
2019-05-20T10:03:55.628Z,25.77
2019-05-20T10:04:55.625Z,25.47
2019-05-20T10:05:55.646Z,25.43
2019-05-20T10:06:55.637Z,25.36
2019-05-20T10:07:55.632Z,25.44
2019-05-20T10:08:55.628Z,25.54
2019-05-20T10:09:55.640Z,25.70
2019-05-20T10:10:59.390Z,25.63
2019-05-20T10:11:55.648Z,25.59
2019-05-20T10:12:55.653Z,25.48
2019-05-20T10:13:55.665Z,25.51
2019-05-20T10:14:55.657Z,25.65
2019-05-20T10:15:55.665Z,25.58
2019-05-20T10:16:55.666Z,25.68
2019-05-20T10:17:55.664Z,25.73
2019-05-20T10:18:55.823Z,25.85
2019-05-20T10:19:55.681Z,25.95
2019-05-20T10:20:55.685Z,25.75
2019-05-20T10:21:55.680Z,25.63
2019-05-20T10:22:55.688Z,25.81
2019-05-20T10:23:55.696Z,26.10
2019-05-20T10:24:55.690Z,26.13
2019-05-20T10:25:55.694Z,25.83
2019-05-20T10:26:55.697Z,25.77
2019-05-20T10:27:57.763Z,25.83
2019-05-20T10:28:55.742Z,25.80
2019-05-20T10:29:55.723Z,25.87
2019-05-20T10:30:55.708Z,25.93
2019-05-20T10:31:55.713Z,25.95
2019-05-20T10:32:55.722Z,25.96
2019-05-20T10:33:55.717Z,25.70
2019-05-20T10:34:55.721Z,25.84
2019-05-20T10:35:55.727Z,25.36
2019-05-20T10:36:55.729Z,25.58
2019-05-20T10:37:55.731Z,25.75
2019-05-20T10:38:59.029Z,25.58
2019-05-20T10:39:55.740Z,25.69
2019-05-20T10:40:55.760Z,25.60
2019-05-20T10:41:55.747Z,25.59
2019-05-20T10:42:55.754Z,25.72
2019-05-20T10:43:55.752Z,25.96
2019-05-20T10:44:55.757Z,26.28
2019-05-20T10:45:55.757Z,26.41
2019-05-20T10:46:55.763Z,26.31
2019-05-20T10:47:55.767Z,26.34
2019-05-20T10:48:55.771Z,26.31
2019-05-20T10:49:55.767Z,25.96
2019-05-20T10:50:55.771Z,26.16
2019-05-20T10:51:55.782Z,26.18
2019-05-20T10:52:55.780Z,26.07
2019-05-20T10:53:55.780Z,26.23
2019-05-20T10:54:55.785Z,26.05
2019-05-20T10:55:55.816Z,26.07
2019-05-20T10:56:55.794Z,26.18
2019-05-20T10:57:55.805Z,26.33
2019-05-20T10:58:55.797Z,26.34
2019-05-20T10:59:55.806Z,26.31
2019-05-20T11:01:02.362Z,26.34
2019-05-20T11:01:55.813Z,26.45
2019-05-20T11:02:55.813Z,26.78
2019-05-20T11:03:55.814Z,26.70
2019-05-20T11:04:55.826Z,26.63
2019-05-20T11:05:55.826Z,26.73
2019-05-20T11:06:55.834Z,26.48
2019-05-20T11:07:55.845Z,26.36
2019-05-20T11:08:55.837Z,26.60
2019-05-20T11:09:55.840Z,26.75
2019-05-20T11:10:55.897Z,26.66
2019-05-20T11:11:55.846Z,26.36
2019-05-20T11:12:55.852Z,26.25
2019-05-20T11:13:55.856Z,26.13
2019-05-20T11:14:55.869Z,25.96
2019-05-20T11:15:55.873Z,25.98
2019-05-20T11:16:55.867Z,26.16
2019-05-20T11:17:55.869Z,26.09
2019-05-20T11:18:55.875Z,26.16
2019-05-20T11:19:55.879Z,26.34
2019-05-20T11:20:55.882Z,26.23
2019-05-20T11:21:55.942Z,26.25
2019-05-20T11:22:55.891Z,26.29
2019-05-20T11:23:55.893Z,26.10
2019-05-20T11:24:55.909Z,25.95
2019-05-20T11:25:55.902Z,25.70
2019-05-20T11:26:55.905Z,25.68
2019-05-20T11:27:55.909Z,25.69
2019-05-20T11:28:55.913Z,25.68
2019-05-20T11:29:55.918Z,25.84
2019-05-20T11:30:55.923Z,25.60
2019-05-20T11:31:55.931Z,25.44
2019-05-20T11:32:55.938Z,25.54
2019-05-20T11:33:57.702Z,25.50
2019-05-20T11:34:55.942Z,25.54
2019-05-20T11:35:55.940Z,25.48
2019-05-20T11:36:55.944Z,25.53
2019-05-20T11:37:55.948Z,25.41
2019-05-20T11:38:55.956Z,25.51
2019-05-20T11:39:55.954Z,25.43
2019-05-20T11:40:55.961Z,25.47
2019-05-20T11:41:55.973Z,25.47
2019-05-20T11:42:55.968Z,25.40
2019-05-20T11:43:55.970Z,25.32
2019-05-20T11:44:55.973Z,25.33
2019-05-20T11:45:55.984Z,25.31
2019-05-20T11:46:55.978Z,25.18
2019-05-20T11:47:55.982Z,25.29
2019-05-20T11:48:55.985Z,25.41
2019-05-20T11:49:55.990Z,25.47
2019-05-20T11:50:55.991Z,25.59
2019-05-20T11:51:55.995Z,25.51
2019-05-20T11:52:55.997Z,25.60
2019-05-20T11:53:56.002Z,25.41
2019-05-20T11:54:56.009Z,25.29
2019-05-20T11:55:56.012Z,25.28
2019-05-20T11:56:56.016Z,25.22
2019-05-20T11:57:56.020Z,25.31
2019-05-20T11:58:56.021Z,25.43
2019-05-20T11:59:56.024Z,25.46
2019-05-20T12:00:56.030Z,25.29
2019-05-20T12:01:56.029Z,25.29
2019-05-20T12:02:56.033Z,25.44
2019-05-20T12:03:56.041Z,25.41
2019-05-20T12:04:56.078Z,25.54
2019-05-20T12:05:56.054Z,25.44
2019-05-20T12:06:56.046Z,25.38
2019-05-20T12:07:56.095Z,25.47
2019-05-20T12:08:56.052Z,25.54
2019-05-20T12:09:56.055Z,25.59
2019-05-20T12:10:56.058Z,25.85
2019-05-20T12:11:56.086Z,25.96
2019-05-20T12:12:56.068Z,25.93
2019-05-20T12:13:56.067Z,26.00
2019-05-20T12:14:56.072Z,25.70
2019-05-20T12:15:56.075Z,25.68
2019-05-20T12:16:56.085Z,25.81
2019-05-20T12:17:56.083Z,25.70
2019-05-20T12:18:56.094Z,25.58
2019-05-20T12:19:56.089Z,25.46
2019-05-20T12:20:56.093Z,25.59
2019-05-20T12:21:56.128Z,25.44
2019-05-20T12:22:56.099Z,25.54
2019-05-20T12:23:56.104Z,25.72
2019-05-20T12:24:56.110Z,25.72
2019-05-20T12:25:56.121Z,25.75
2019-05-20T12:26:56.113Z,25.87
2019-05-20T12:27:56.124Z,25.99
2019-05-20T12:28:56.121Z,25.50
2019-05-20T12:29:56.124Z,25.65
2019-05-20T12:30:56.127Z,25.83
2019-05-20T12:31:56.136Z,25.87
2019-05-20T12:33:17.335Z,25.70
2019-05-20T12:33:56.141Z,26.00
2019-05-20T12:34:56.143Z,26.13
2019-05-20T12:35:56.147Z,25.84
2019-05-20T12:36:56.153Z,25.68
2019-05-20T12:37:56.157Z,25.63
2019-05-20T12:38:56.159Z,25.72
2019-05-20T12:40:06.407Z,25.84
2019-05-20T12:40:56.165Z,26.16
2019-05-20T12:41:56.169Z,25.75
2019-05-20T12:42:56.175Z,25.69
2019-05-20T12:44:10.727Z,25.68
2019-05-20T12:44:56.186Z,25.98
2019-05-20T12:45:56.202Z,25.80
2019-05-20T12:46:56.190Z,25.93
2019-05-20T12:47:56.192Z,25.98
2019-05-20T12:48:56.236Z,25.87
2019-05-20T12:49:56.199Z,25.96
2019-05-20T12:50:56.206Z,25.93
2019-05-20T12:51:56.210Z,26.06
2019-05-20T12:52:56.211Z,25.96